This is the latest recevied weather packets stored in our database for station/object OE5HCE. If no packets are shown the sender has not sent any weather packets the latest 10 day(s).
| Time | Temp. | Humidity | Pressure | Rain* | Wind** | Luminosity | Snow |
|---|---|---|---|---|---|---|---|
| 1777231829 | 12.78° C | 52% | 1023 hPa | 0 mm | - | 0 W/m² | - |
| 1777230926 | 13.33° C | 51% | 1022.8 hPa | 0 mm | - | 0 W/m² | - |
| 1777230025 | 13.89° C | 47% | 1022.4 hPa | 0 mm | - | 0 W/m² | - |
| 1777229125 | 14.44° C | 45% | 1022.2 hPa | 0 mm | - | 0 W/m² | - |
| 1777228235 | 15.56° C | 44% | 1021.9 hPa | 0 mm | - | 0 W/m² | - |
| 1777227350 | 16.11° C | 40% | 1021.6 hPa | 0 mm | - | 0 W/m² | - |
| 1777226438 | 16.11° C | 40% | 1021.5 hPa | 0 mm | - | 7 W/m² | - |
| 1777225522 | 16.67° C | 44% | 1021.3 hPa | 0 mm | - | 18 W/m² | - |
| 1777224621 | 17.22° C | 43% | 1021.2 hPa | 0 mm | - | 30 W/m² | - |
| 1777223721 | 17.22° C | 43% | 1021.2 hPa | 0 mm | - | 44 W/m² | - |
| 1777222823 | 17.78° C | 42% | 1021.2 hPa | 0 mm | - | 60 W/m² | - |
| 1777221921 | 18.33° C | 38% | 1021.2 hPa | 0 mm | - | 91 W/m² | - |
| 1777221019 | 18.33° C | 36% | 1021.2 hPa | 0 mm | - | 137 W/m² | - |
| 1777220120 | 18.89° C | 37% | 1021.2 hPa | 0 mm | - | 176 W/m² | - |
| 1777219220 | 20° C | 36% | 1021.2 hPa | 0 mm | - | 218 W/m² | - |
| 1777218318 | 20° C | 35% | 1021.2 hPa | 0 mm | - | 316 W/m² | - |
| 1777217427 | 20° C | 35% | 1021.2 hPa | 0 mm | - | 373 W/m² | - |
| 1777216517 | 20.56° C | 33% | 1021.2 hPa | 0 mm | - | 408 W/m² | - |
| 1777215620 | 20.56° C | 33% | 1021.1 hPa | 0 mm | - | 461 W/m² | - |
| 1777214715 | 20.56° C | 35% | 1021.2 hPa | 0 mm | - | 492 W/m² | - |
| 1777213813 | 20° C | 35% | 1021.2 hPa | 0 mm | - | 527 W/m² | - |
| 1777212914 | 20.56° C | 34% | 1021.1 hPa | 0 mm | - | 564 W/m² | - |
| 1777212013 | 20° C | 34% | 1021.2 hPa | 0 mm | - | 592 W/m² | - |
| 1777211112 | 20° C | 35% | 1021.2 hPa | 0 mm | - | 631 W/m² | - |
| 1777210211 | 20° C | 36% | 1021.3 hPa | 0 mm | - | 654 W/m² | - |
* Rain latest hour (hover to see other rain measurements)
** Current wind speed in m/s (hover to see current wind gust speed)